createdAt,value
2023-01-23T00:00:47.605Z,103.214
2023-01-23T00:01:47.640Z,103.143
2023-01-23T00:02:47.719Z,103.143
2023-01-23T00:03:47.728Z,103.071
2023-01-23T00:04:47.757Z,103.214
2023-01-23T00:05:47.773Z,103.071
2023-01-23T00:06:47.807Z,103
2023-01-23T00:07:47.842Z,103.214
2023-01-23T00:08:47.876Z,103.143
2023-01-23T00:09:47.909Z,103.214
2023-01-23T00:10:47.952Z,103.214
2023-01-23T00:11:47.979Z,103
2023-01-23T00:12:48.018Z,103.071
2023-01-23T00:13:48.107Z,103
2023-01-23T00:14:48.089Z,103.071
2023-01-23T00:15:48.164Z,103.214
2023-01-23T00:16:48.173Z,103
2023-01-23T00:17:48.206Z,103.214
2023-01-23T00:18:48.259Z,103.071
2023-01-23T00:19:48.278Z,103.071
2023-01-23T00:20:48.325Z,103.143
2023-01-23T00:21:48.355Z,103.143
2023-01-23T00:22:48.392Z,103.214
2023-01-23T00:23:48.421Z,103.071
2023-01-23T00:24:48.443Z,103.071
2023-01-23T00:25:48.491Z,103.143
2023-01-23T00:26:48.509Z,103.071
2023-01-23T00:27:48.543Z,103.214
2023-01-23T00:28:48.584Z,103
2023-01-23T00:29:48.658Z,103.214
2023-01-23T00:30:48.710Z,103.357
2023-01-23T00:31:48.720Z,103.071
2023-01-23T00:32:48.734Z,103
2023-01-23T00:33:48.765Z,103.143
2023-01-23T00:34:48.803Z,103.071
2023-01-23T00:35:48.873Z,103
2023-01-23T00:36:48.876Z,103.286
2023-01-23T00:37:48.930Z,103.143
2023-01-23T00:38:48.940Z,103.143
2023-01-23T00:39:48.964Z,103.143
2023-01-23T00:40:49.020Z,103.143
2023-01-23T00:41:49.048Z,103.143
2023-01-23T00:42:49.091Z,103.286
2023-01-23T00:43:49.136Z,103.143
2023-01-23T00:44:49.167Z,103.143
2023-01-23T00:45:49.191Z,103.286
2023-01-23T00:46:49.282Z,103
2023-01-23T00:47:49.257Z,103.071
2023-01-23T00:48:49.306Z,103.143
2023-01-23T00:49:49.337Z,103.143
2023-01-23T00:50:49.445Z,103
2023-01-23T00:51:49.409Z,103.071
2023-01-23T00:52:49.442Z,103.286
2023-01-23T00:53:49.479Z,103.071
2023-01-23T00:54:49.512Z,103.286
2023-01-23T00:55:49.564Z,103.214
2023-01-23T00:56:49.593Z,103.143
2023-01-23T00:57:49.613Z,103.143
2023-01-23T00:58:49.646Z,103.143
2023-01-23T00:59:49.709Z,103.071
2023-01-23T01:00:49.739Z,103.286
2023-01-23T01:01:49.891Z,103.071
2023-01-23T01:02:49.880Z,103.286
2023-01-23T01:03:49.830Z,103.071
2023-01-23T01:04:49.863Z,103.143
2023-01-23T01:05:49.898Z,103.429
2023-01-23T01:06:49.943Z,103.286
2023-01-23T01:07:49.979Z,103.286
2023-01-23T01:08:50.024Z,103.286
2023-01-23T01:09:50.047Z,103
2023-01-23T01:10:50.091Z,103.286
2023-01-23T01:11:50.124Z,103.357
2023-01-23T01:12:50.178Z,103.143
2023-01-23T01:13:50.220Z,103
2023-01-23T01:14:50.240Z,103.286
2023-01-23T01:15:50.320Z,103.143
2023-01-23T01:16:50.311Z,103.143
2023-01-23T01:17:50.353Z,103.286
2023-01-23T01:18:50.371Z,103.286
2023-01-23T01:19:50.414Z,103.143
2023-01-23T01:20:50.471Z,103.286
2023-01-23T01:21:50.486Z,103.071
2023-01-23T01:22:50.536Z,103.429
2023-01-23T01:23:50.562Z,103.214
2023-01-23T01:24:50.585Z,103.143
2023-01-23T01:25:50.623Z,103
2023-01-23T01:26:50.654Z,103.214
2023-01-23T01:27:50.723Z,103
2023-01-23T01:28:50.734Z,103.286
2023-01-23T01:29:50.765Z,103.143
2023-01-23T01:30:50.875Z,103.286
2023-01-23T01:31:50.896Z,103.143
2023-01-23T01:32:50.898Z,103.286
2023-01-23T01:33:50.903Z,103.286
2023-01-23T01:34:50.942Z,103.214
2023-01-23T01:35:50.976Z,103.357
2023-01-23T01:36:51.024Z,103.286
2023-01-23T01:37:51.052Z,103.143
2023-01-23T01:38:51.104Z,103.143
2023-01-23T01:39:51.130Z,103.286
2023-01-23T01:40:51.163Z,103.286
2023-01-23T01:41:51.200Z,103.143
2023-01-23T01:42:51.241Z,103.143
2023-01-23T01:43:51.272Z,103.143
2023-01-23T01:44:51.309Z,103.071
2023-01-23T01:45:51.345Z,103.286
2023-01-23T01:46:51.416Z,103.286
2023-01-23T01:47:51.421Z,103.286
2023-01-23T01:48:51.482Z,103.286
2023-01-23T01:49:51.488Z,103.286
2023-01-23T01:50:51.589Z,103.143
2023-01-23T01:51:51.562Z,103.429
2023-01-23T01:52:51.601Z,103.143
2023-01-23T01:53:51.667Z,103.214
2023-01-23T01:54:51.672Z,103.286
2023-01-23T01:55:51.700Z,103.143
2023-01-23T01:56:51.736Z,103.143
2023-01-23T01:57:51.779Z,103.143
2023-01-23T01:58:51.822Z,102.929
2023-01-23T01:59:51.838Z,103.214
2023-01-23T02:00:51.912Z,103.143
2023-01-23T02:01:52.000Z,103.286
2023-01-23T02:02:51.939Z,103.286
2023-01-23T02:03:51.974Z,103.214
2023-01-23T02:04:52.017Z,103.357
2023-01-23T02:05:52.063Z,103.143
2023-01-23T02:06:52.084Z,103.143
2023-01-23T02:07:52.124Z,103.143
2023-01-23T02:08:52.167Z,103.143
2023-01-23T02:09:52.203Z,103.357
2023-01-23T02:10:52.239Z,103.143
2023-01-23T02:11:52.277Z,103.214
2023-01-23T02:12:52.303Z,103.143
2023-01-23T02:13:52.337Z,103.214
2023-01-23T02:14:52.391Z,103.143
2023-01-23T02:15:52.417Z,103.143
2023-01-23T02:16:52.455Z,103.357
2023-01-23T02:17:52.491Z,103.214
2023-01-23T02:18:52.531Z,102.929
2023-01-23T02:19:52.571Z,103.214
2023-01-23T02:20:52.605Z,103.143
2023-01-23T02:21:52.644Z,103.143
2023-01-23T02:22:52.668Z,103.357
2023-01-23T02:23:52.708Z,103.143
2023-01-23T02:24:52.730Z,103.357
2023-01-23T02:25:52.774Z,103.286
2023-01-23T02:26:52.822Z,103.071
2023-01-23T02:27:52.850Z,103.357
2023-01-23T02:28:52.906Z,103.214
2023-01-23T02:29:52.942Z,103.071
2023-01-23T02:30:52.999Z,103.071
2023-01-23T02:31:53.119Z,103.214
2023-01-23T02:32:53.049Z,103.143
2023-01-23T02:33:53.117Z,103.214
2023-01-23T02:34:53.130Z,103.143
2023-01-23T02:35:53.179Z,103.357
2023-01-23T02:36:53.208Z,103.357
2023-01-23T02:37:53.237Z,103.214
2023-01-23T02:38:53.280Z,103.143
2023-01-23T02:39:53.313Z,103.214
2023-01-23T02:40:53.387Z,103.214
2023-01-23T02:41:53.397Z,103.214
2023-01-23T02:42:53.427Z,103.214
2023-01-23T02:43:53.465Z,103.214
2023-01-23T02:44:53.493Z,103.143
2023-01-23T02:45:53.614Z,103.357
2023-01-23T02:46:53.569Z,103.214
2023-01-23T02:47:53.599Z,103.357
2023-01-23T02:48:53.642Z,103.357
2023-01-23T02:49:53.687Z,103.357
2023-01-23T02:50:53.777Z,103.143
2023-01-23T02:51:53.748Z,103.143
2023-01-23T02:52:53.780Z,103.357
2023-01-23T02:53:53.821Z,103.071
2023-01-23T02:54:53.855Z,103.143
2023-01-23T02:55:53.892Z,103.214
2023-01-23T02:56:53.933Z,103.071
2023-01-23T02:57:53.962Z,103.071
2023-01-23T02:58:53.991Z,103.357
2023-01-23T02:59:54.034Z,103
2023-01-23T03:00:54.115Z,103.286
2023-01-23T03:01:54.164Z,103.286
2023-01-23T03:02:54.126Z,103.429
2023-01-23T03:03:54.174Z,103.286
2023-01-23T03:04:54.206Z,103
2023-01-23T03:05:54.243Z,103.429
2023-01-23T03:06:54.301Z,103.357
2023-01-23T03:07:54.319Z,103.286
2023-01-23T03:08:54.348Z,103.214
2023-01-23T03:09:54.400Z,103.286
2023-01-23T03:10:54.417Z,103.286
2023-01-23T03:11:54.493Z,103.357
2023-01-23T03:12:54.487Z,103.214
2023-01-23T03:13:54.517Z,103.286
2023-01-23T03:14:54.561Z,103.214
2023-01-23T03:15:54.599Z,103
2023-01-23T03:16:54.659Z,103.143
2023-01-23T03:17:54.677Z,103.429
2023-01-23T03:18:55.218Z,103.071
2023-01-23T03:19:54.744Z,103.214
2023-01-23T03:20:54.789Z,103.214
2023-01-23T03:21:54.867Z,103.143
2023-01-23T03:22:54.861Z,103.286
2023-01-23T03:23:54.895Z,103.357
2023-01-23T03:24:54.924Z,103.214
2023-01-23T03:25:54.956Z,103.214
2023-01-23T03:26:54.997Z,103.357
2023-01-23T03:27:55.040Z,103.214
2023-01-23T03:28:55.067Z,103.214
2023-01-23T03:29:55.116Z,103.357
2023-01-23T03:30:55.186Z,103.357
2023-01-23T03:31:55.241Z,103.214
2023-01-23T03:32:55.220Z,103.214
2023-01-23T03:33:55.248Z,103.214
2023-01-23T03:34:55.289Z,103.214
2023-01-23T03:35:55.309Z,103.357
2023-01-23T03:36:55.349Z,103.286
2023-01-23T03:37:55.410Z,103.143
2023-01-23T03:38:55.424Z,103.214
2023-01-23T03:39:55.465Z,103.357
2023-01-23T03:40:55.493Z,103.5
2023-01-23T03:41:55.523Z,103.214
2023-01-23T03:42:55.582Z,103.357
2023-01-23T03:43:55.604Z,103.214
2023-01-23T03:44:55.636Z,103.143
2023-01-23T03:45:55.777Z,103.214
2023-01-23T03:46:55.721Z,103.357
2023-01-23T03:47:55.764Z,103.357
2023-01-23T03:48:55.786Z,103.5
2023-01-23T03:49:55.825Z,103.143
2023-01-23T03:50:55.922Z,103.357
2023-01-23T03:51:55.905Z,103.357
2023-01-23T03:52:55.955Z,103.214
2023-01-23T03:53:55.965Z,103.357
2023-01-23T03:54:55.995Z,103.214
2023-01-23T03:55:56.036Z,103.214
2023-01-23T03:56:56.077Z,103.143
2023-01-23T03:57:56.108Z,103.357
2023-01-23T03:58:56.149Z,103.286
2023-01-23T03:59:56.179Z,103.357
2023-01-23T04:00:56.271Z,103.357
2023-01-23T04:01:56.253Z,103.357
2023-01-23T04:02:56.326Z,103.357
2023-01-23T04:03:56.323Z,103.214
2023-01-23T04:04:56.359Z,103.286
2023-01-23T04:05:56.405Z,103.357
2023-01-23T04:06:56.414Z,103.357
2023-01-23T04:07:56.455Z,103.5
2023-01-23T04:08:56.502Z,103.429
2023-01-23T04:09:56.518Z,103.357
2023-01-23T04:10:56.542Z,103.214
2023-01-23T04:11:56.578Z,103.429
2023-01-23T04:12:56.637Z,103.214
2023-01-23T04:13:56.667Z,103.214
2023-01-23T04:14:56.686Z,103.214
2023-01-23T04:15:56.727Z,103.357
2023-01-23T04:16:56.742Z,103.214
2023-01-23T04:17:56.805Z,103.357
2023-01-23T04:18:56.823Z,103.214
2023-01-23T04:19:56.861Z,103.143
2023-01-23T04:20:56.948Z,103.214
2023-01-23T04:21:56.938Z,103.286
2023-01-23T04:22:56.983Z,103.357
2023-01-23T04:23:57.002Z,103.5
2023-01-23T04:24:57.036Z,103.214
2023-01-23T04:25:57.090Z,103.214
2023-01-23T04:26:57.114Z,103.214
2023-01-23T04:27:57.155Z,103.214
2023-01-23T04:28:57.188Z,103.286
2023-01-23T04:29:57.219Z,103.357
2023-01-23T04:30:59.336Z,103.429
2023-01-23T04:31:57.283Z,103.357
2023-01-23T04:32:57.318Z,103.286
2023-01-23T04:33:57.344Z,103.143
2023-01-23T04:34:57.396Z,103.286
2023-01-23T04:35:57.433Z,103.357
2023-01-23T04:36:57.454Z,103.429
2023-01-23T04:37:57.502Z,103.286
2023-01-23T04:38:57.539Z,103.429
2023-01-23T04:39:57.568Z,103.214
2023-01-23T04:40:57.671Z,103.429
2023-01-23T04:41:57.658Z,103.286
2023-01-23T04:42:57.679Z,103.214
2023-01-23T04:43:57.725Z,103.5
2023-01-23T04:44:57.759Z,103.571
2023-01-23T04:45:57.818Z,103.5
2023-01-23T04:46:57.872Z,103.357
2023-01-23T04:47:57.859Z,103.357
2023-01-23T04:48:57.897Z,103.214
2023-01-23T04:49:57.914Z,103.214
2023-01-23T04:50:57.969Z,103.286
2023-01-23T04:51:58.006Z,103.357
2023-01-23T04:52:58.028Z,103.429
2023-01-23T04:53:58.066Z,103.143
2023-01-23T04:54:58.116Z,103.286
2023-01-23T04:55:58.138Z,103.357
2023-01-23T04:56:58.178Z,103.214
2023-01-23T04:57:58.208Z,103.357
2023-01-23T04:58:58.249Z,103.214
2023-01-23T05:00:00.363Z,103.357
2023-01-23T05:00:58.332Z,103.357
2023-01-23T05:01:58.357Z,103.214
2023-01-23T05:02:58.391Z,103.357
2023-01-23T05:03:58.432Z,103.429
2023-01-23T05:04:58.462Z,103.357
2023-01-23T05:05:58.501Z,103.357
2023-01-23T05:06:58.538Z,103.357
2023-01-23T05:07:58.595Z,103.429
2023-01-23T05:08:58.606Z,103.357
2023-01-23T05:09:58.647Z,103.357
2023-01-23T05:10:58.661Z,103.357
2023-01-23T05:11:58.717Z,103.357
2023-01-23T05:12:58.746Z,103.357
2023-01-23T05:13:58.799Z,103.357
2023-01-23T05:14:58.824Z,103.429
2023-01-23T05:15:58.884Z,103.429
2023-01-23T05:16:58.883Z,103.357
2023-01-23T05:17:58.931Z,103.429
2023-01-23T05:18:59.015Z,103.429
2023-01-23T05:19:58.999Z,103.357
2023-01-23T05:20:59.036Z,103.429
2023-01-23T05:21:59.073Z,103.214
2023-01-23T05:22:59.114Z,103.286
2023-01-23T05:23:59.184Z,103.429
2023-01-23T05:24:59.179Z,103.286
2023-01-23T05:25:59.212Z,103.357
2023-01-23T05:26:59.264Z,103.429
2023-01-23T05:27:59.290Z,103.429
2023-01-23T05:28:59.315Z,103.429
2023-01-23T05:29:59.357Z,103.357
2023-01-23T05:30:59.505Z,103.5
2023-01-23T05:31:59.429Z,103.286
2023-01-23T05:32:59.472Z,103.357
2023-01-23T05:33:59.496Z,103.429
2023-01-23T05:34:59.529Z,103.357
2023-01-23T05:35:59.566Z,103.429
2023-01-23T05:36:59.592Z,103.357
2023-01-23T05:37:59.632Z,103.214
2023-01-23T05:38:59.666Z,103.429
2023-01-23T05:39:59.704Z,103.357
2023-01-23T05:40:59.743Z,103.5
2023-01-23T05:41:59.769Z,103.357
2023-01-23T05:42:59.802Z,103.429
2023-01-23T05:43:59.846Z,103.214
2023-01-23T05:44:59.899Z,103.5
2023-01-23T05:46:00.000Z,103.214
2023-01-23T05:46:59.957Z,103.429
2023-01-23T05:47:59.972Z,103.429
2023-01-23T05:49:00.018Z,103.357
2023-01-23T05:50:00.097Z,103.357
2023-01-23T05:51:00.159Z,103.571
2023-01-23T05:52:00.122Z,103.214
2023-01-23T05:53:00.154Z,103.5
2023-01-23T05:54:00.207Z,103.429
2023-01-23T05:55:00.255Z,103.429
2023-01-23T05:56:00.268Z,103.214
2023-01-23T05:57:00.305Z,103.286
2023-01-23T05:58:00.340Z,103.357
2023-01-23T05:59:00.375Z,103.5
2023-01-23T06:00:00.416Z,103.429
2023-01-23T06:01:00.441Z,103.357
2023-01-23T06:02:00.486Z,103.5
2023-01-23T06:03:00.520Z,103.429
2023-01-23T06:04:00.587Z,103.429
2023-01-23T06:05:00.583Z,103.429
2023-01-23T06:06:00.617Z,103.429
2023-01-23T06:07:00.654Z,103.429
2023-01-23T06:08:00.709Z,103.429
2023-01-23T06:09:00.728Z,103.357
2023-01-23T06:10:00.768Z,103.357
2023-01-23T06:11:00.808Z,103.429
2023-01-23T06:12:00.839Z,103.357
2023-01-23T06:13:00.872Z,103.357
2023-01-23T06:14:00.918Z,103.429
2023-01-23T06:15:00.944Z,103.357
2023-01-23T06:16:01.035Z,103.357
2023-01-23T06:17:01.022Z,103.429
2023-01-23T06:18:01.150Z,103.5
2023-01-23T06:19:01.084Z,103.357
2023-01-23T06:20:01.134Z,103.357
2023-01-23T06:21:01.273Z,103.5
2023-01-23T06:22:01.200Z,103.429
2023-01-23T06:23:01.249Z,103.429
2023-01-23T06:24:01.270Z,103.357
2023-01-23T06:25:01.325Z,103.429
2023-01-23T06:26:01.359Z,103.429
2023-01-23T06:27:01.383Z,103.429
2023-01-23T06:28:01.429Z,103.429
2023-01-23T06:29:01.452Z,103.429
2023-01-23T06:30:01.483Z,103.429
2023-01-23T06:31:01.644Z,103.429
2023-01-23T06:32:01.563Z,103.429
2023-01-23T06:33:01.589Z,103.429
2023-01-23T06:34:01.626Z,103.5
2023-01-23T06:35:01.673Z,103.429
2023-01-23T06:36:01.718Z,103.5
2023-01-23T06:37:01.780Z,103.5
2023-01-23T06:38:01.797Z,103.5
2023-01-23T06:39:01.823Z,103.5
2023-01-23T06:40:01.856Z,103.357
2023-01-23T06:41:01.911Z,103.429
2023-01-23T06:42:01.952Z,103.571
2023-01-23T06:43:01.957Z,103.5
2023-01-23T06:44:02.002Z,103.357
2023-01-23T06:45:02.037Z,103.5
2023-01-23T06:46:02.057Z,103.5
2023-01-23T06:47:02.103Z,103.357
2023-01-23T06:48:02.138Z,103.357
2023-01-23T06:49:04.500Z,103.571
2023-01-23T06:50:02.210Z,103.5
2023-01-23T06:51:02.354Z,103.357
2023-01-23T06:52:02.314Z,103.429
2023-01-23T06:53:02.310Z,103.429
2023-01-23T06:54:02.365Z,103.5
2023-01-23T06:55:02.394Z,103.5
2023-01-23T06:56:02.425Z,103.429
2023-01-23T06:57:02.461Z,103.571
2023-01-23T06:58:02.493Z,103.357
2023-01-23T06:59:02.531Z,103.429
2023-01-23T07:00:02.635Z,103.571
2023-01-23T07:01:02.599Z,103.5
2023-01-23T07:02:02.629Z,103.357
2023-01-23T07:03:02.752Z,103.429
2023-01-23T07:04:02.698Z,103.5
2023-01-23T07:05:02.742Z,103.571
2023-01-23T07:06:02.777Z,103.5
2023-01-23T07:07:02.814Z,103.571
2023-01-23T07:08:04.804Z,103.429
2023-01-23T07:09:02.880Z,103.5
2023-01-23T07:10:02.922Z,103.5
2023-01-23T07:11:02.955Z,103.429
2023-01-23T07:12:03.002Z,103.357
2023-01-23T07:13:03.046Z,103.429
2023-01-23T07:14:03.064Z,103.5
2023-01-23T07:15:03.102Z,103.5
2023-01-23T07:16:03.217Z,103.429
2023-01-23T07:17:03.179Z,103.571
2023-01-23T07:18:03.214Z,103.571
2023-01-23T07:19:03.247Z,103.5
2023-01-23T07:20:03.283Z,103.5
2023-01-23T07:21:03.312Z,103.357
2023-01-23T07:22:03.340Z,103.5
2023-01-23T07:23:04.704Z,103.571
2023-01-23T07:24:03.408Z,103.357
2023-01-23T07:25:03.445Z,103.571
2023-01-23T07:26:03.503Z,103.429
2023-01-23T07:27:03.514Z,103.429
2023-01-23T07:28:03.562Z,103.571
2023-01-23T07:29:03.607Z,103.571
2023-01-23T07:30:03.649Z,103.571
2023-01-23T07:31:03.750Z,103.357
2023-01-23T07:32:03.704Z,103.5
2023-01-23T07:33:03.726Z,103.571
2023-01-23T07:34:03.770Z,103.5
2023-01-23T07:35:03.800Z,103.5
2023-01-23T07:36:03.836Z,103.429
2023-01-23T07:37:03.862Z,103.429
2023-01-23T07:38:03.892Z,103.571
2023-01-23T07:39:03.978Z,103.5
2023-01-23T07:40:03.963Z,103.5
2023-01-23T07:41:04.013Z,103.5
2023-01-23T07:42:04.049Z,103.429
2023-01-23T07:43:04.089Z,103.5
2023-01-23T07:44:04.137Z,103.571
2023-01-23T07:45:04.151Z,103.5
2023-01-23T07:46:04.178Z,103.5
2023-01-23T07:47:04.224Z,103.429
2023-01-23T07:48:04.252Z,103.5
2023-01-23T07:49:04.294Z,103.5
2023-01-23T07:50:04.319Z,103.571
2023-01-23T07:51:04.459Z,103.5
2023-01-23T07:52:04.390Z,103.571
2023-01-23T07:53:04.454Z,103.429
2023-01-23T07:54:04.475Z,103.357
2023-01-23T07:55:04.498Z,103.357
2023-01-23T07:56:04.544Z,103.429
2023-01-23T07:57:04.558Z,103.429
2023-01-23T07:58:04.595Z,103.429
2023-01-23T07:59:04.625Z,103.5
2023-01-23T08:00:04.676Z,103.429
2023-01-23T08:01:04.741Z,103.429
2023-01-23T08:02:04.751Z,103.429
2023-01-23T08:03:04.776Z,103.5
2023-01-23T08:04:04.886Z,103.429
2023-01-23T08:05:04.850Z,103.429
2023-01-23T08:06:04.903Z,103.5
2023-01-23T08:07:04.912Z,103.429
2023-01-23T08:08:13.066Z,103.429
2023-01-23T08:09:04.991Z,103.429
2023-01-23T08:10:05.030Z,103.429
2023-01-23T08:11:05.095Z,103.429
2023-01-23T08:12:05.102Z,103.429
2023-01-23T08:13:05.140Z,103.429
2023-01-23T08:14:05.178Z,103.429
2023-01-23T08:15:05.217Z,103.429
2023-01-23T08:16:05.289Z,103.357
2023-01-23T08:17:05.293Z,103.429
2023-01-23T08:18:05.336Z,103.429
2023-01-23T08:19:05.355Z,103.429
2023-01-23T08:20:05.400Z,103.5
2023-01-23T08:21:05.426Z,103.429
2023-01-23T08:22:05.459Z,103.429
2023-01-23T08:23:05.488Z,103.429
2023-01-23T08:24:05.517Z,103.5
2023-01-23T08:25:05.559Z,103.429
2023-01-23T08:26:05.594Z,103.429
2023-01-23T08:27:05.633Z,103.429
2023-01-23T08:28:05.659Z,103.429
2023-01-23T08:29:05.719Z,103.429
2023-01-23T08:30:05.739Z,103.429
2023-01-23T08:31:06.849Z,103.429
2023-01-23T08:32:05.898Z,103.5
2023-01-23T08:33:05.846Z,103.429
2023-01-23T08:34:05.894Z,103.429
2023-01-23T08:35:05.931Z,103.5
2023-01-23T08:36:05.972Z,103.5
2023-01-23T08:37:05.991Z,103.429
2023-01-23T08:38:06.046Z,103.429
2023-01-23T08:39:06.051Z,103.5
2023-01-23T08:40:06.086Z,103.429
2023-01-23T08:41:06.121Z,103.571
2023-01-23T08:42:06.158Z,103.429
2023-01-23T08:43:06.230Z,103.429
2023-01-23T08:44:06.229Z,103.429
2023-01-23T08:45:06.262Z,103.429
2023-01-23T08:46:06.445Z,103.5
2023-01-23T08:47:06.339Z,103.5
2023-01-23T08:48:06.389Z,103.429
2023-01-23T08:49:06.407Z,103.429
2023-01-23T08:50:06.451Z,103.429
2023-01-23T08:51:06.534Z,103.429
2023-01-23T08:52:06.507Z,103.429
2023-01-23T08:53:06.541Z,103.429
2023-01-23T08:54:06.613Z,103.429
2023-01-23T08:55:06.612Z,103.643
2023-01-23T08:56:06.659Z,103.429
2023-01-23T08:57:06.683Z,103.429
2023-01-23T08:58:06.728Z,103.429
2023-01-23T08:59:06.812Z,103.429
2023-01-23T09:00:06.795Z,103.714
2023-01-23T09:01:06.884Z,103.5
2023-01-23T09:02:06.933Z,103.5
2023-01-23T09:03:06.906Z,103.5
2023-01-23T09:04:06.954Z,103.5
2023-01-23T09:05:06.968Z,103.429
2023-01-23T09:06:06.998Z,103.571
2023-01-23T09:07:07.055Z,103.571
2023-01-23T09:08:07.087Z,103.5
2023-01-23T09:09:07.121Z,103.571
2023-01-23T09:10:07.147Z,103.5
2023-01-23T09:11:07.169Z,103.571
2023-01-23T09:12:07.257Z,103.571
2023-01-23T09:13:07.243Z,103.5
2023-01-23T09:14:07.282Z,103.5
2023-01-23T09:15:07.315Z,103.571
2023-01-23T09:16:07.373Z,103.571
2023-01-23T09:17:07.410Z,103.571
2023-01-23T09:18:07.423Z,103.5
2023-01-23T09:19:07.452Z,103.5
2023-01-23T09:20:07.492Z,103.571
2023-01-23T09:21:08.755Z,103.571
2023-01-23T09:22:07.566Z,103.571
2023-01-23T09:23:07.612Z,103.571
2023-01-23T09:24:07.643Z,103.5
2023-01-23T09:25:07.706Z,103.643
2023-01-23T09:26:07.708Z,103.571
2023-01-23T09:27:07.745Z,103.571
2023-01-23T09:28:07.774Z,103.571
2023-01-23T09:29:07.818Z,103.643
2023-01-23T09:30:07.856Z,103.429
2023-01-23T09:31:07.894Z,103.643
2023-01-23T09:32:07.921Z,103.571
2023-01-23T09:33:07.962Z,103.643
2023-01-23T09:34:08.021Z,103.643
2023-01-23T09:35:08.025Z,103.643
2023-01-23T09:36:08.060Z,103.429
2023-01-23T09:37:08.087Z,103.643
2023-01-23T09:38:08.118Z,103.5
2023-01-23T09:39:08.172Z,103.643
2023-01-23T09:40:08.211Z,103.5
2023-01-23T09:41:08.601Z,103.5
2023-01-23T09:42:08.569Z,103.643
2023-01-23T09:43:08.317Z,103.643
2023-01-23T09:44:08.333Z,103.643
2023-01-23T09:45:08.373Z,103.5
2023-01-23T09:46:08.428Z,103.643
2023-01-23T09:47:08.453Z,103.643
2023-01-23T09:48:08.483Z,103.643
2023-01-23T09:49:08.523Z,103.643
2023-01-23T09:50:08.556Z,103.643
2023-01-23T09:51:08.628Z,103.643
2023-01-23T09:52:08.606Z,103.714
2023-01-23T09:53:08.657Z,103.643
2023-01-23T09:54:08.683Z,103.643
2023-01-23T09:55:08.728Z,103.643
2023-01-23T09:56:08.765Z,103.643
2023-01-23T09:57:08.793Z,103.643
2023-01-23T09:58:08.824Z,103.643
2023-01-23T09:59:08.887Z,103.643
2023-01-23T10:00:09.908Z,103.643
2023-01-23T10:01:08.951Z,103.643
2023-01-23T10:02:08.985Z,103.643
2023-01-23T10:03:08.997Z,103.643
2023-01-23T10:04:09.045Z,103.643
2023-01-23T10:05:09.063Z,103.643
2023-01-23T10:06:09.089Z,103.643
2023-01-23T10:07:09.133Z,103.571
2023-01-23T10:08:09.161Z,103.643
2023-01-23T10:09:09.209Z,103.714
2023-01-23T10:10:09.255Z,103.5
2023-01-23T10:11:09.280Z,103.714
2023-01-23T10:12:09.312Z,103.643
2023-01-23T10:13:09.390Z,103.643
2023-01-23T10:14:09.391Z,103.714
2023-01-23T10:15:09.427Z,103.571
2023-01-23T10:16:09.457Z,103.643
2023-01-23T10:17:09.529Z,103.5
2023-01-23T10:18:09.532Z,103.5
2023-01-23T10:19:09.563Z,103.643
2023-01-23T10:20:09.590Z,103.643
2023-01-23T10:21:09.623Z,103.571
2023-01-23T10:22:11.801Z,103.643
2023-01-23T10:23:09.698Z,103.5
2023-01-23T10:24:09.747Z,103.5
2023-01-23T10:25:09.767Z,103.643
2023-01-23T10:26:09.788Z,103.643
2023-01-23T10:27:09.879Z,103.5
2023-01-23T10:28:10.933Z,103.643
2023-01-23T10:29:09.902Z,103.643
2023-01-23T10:30:09.941Z,103.714
2023-01-23T10:31:10.068Z,103.571
2023-01-23T10:32:10.045Z,103.643
2023-01-23T10:33:10.046Z,103.643
2023-01-23T10:34:10.106Z,103.643
2023-01-23T10:35:10.167Z,103.571
2023-01-23T10:36:10.142Z,103.786
2023-01-23T10:37:10.180Z,103.571
2023-01-23T10:38:10.235Z,103.429
2023-01-23T10:39:10.248Z,103.571
2023-01-23T10:40:10.302Z,103.714
2023-01-23T10:41:10.317Z,103.5
2023-01-23T10:42:10.354Z,103.5
2023-01-23T10:43:10.379Z,103.643
2023-01-23T10:44:10.412Z,103.571
2023-01-23T10:45:10.460Z,103.5
2023-01-23T10:46:10.566Z,103.571
2023-01-23T10:47:10.512Z,103.643
2023-01-23T10:48:16.086Z,103.429
2023-01-23T10:49:10.582Z,103.571
2023-01-23T10:50:10.616Z,103.571
2023-01-23T10:51:10.661Z,103.643
2023-01-23T10:52:10.678Z,103.5
2023-01-23T10:53:10.700Z,103.571
2023-01-23T10:54:13.039Z,103.786
2023-01-23T10:55:10.771Z,103.571
2023-01-23T10:56:10.805Z,103.571
2023-01-23T10:57:10.843Z,103.643
2023-01-23T10:58:10.887Z,103.786
2023-01-23T10:59:10.918Z,103.786
2023-01-23T11:00:10.955Z,103.429
2023-01-23T11:01:11.044Z,103.571
2023-01-23T11:02:11.136Z,103.5
2023-01-23T11:03:11.079Z,103.786
2023-01-23T11:04:11.112Z,103.643
2023-01-23T11:05:11.127Z,103.643
2023-01-23T11:06:11.165Z,103.643
2023-01-23T11:07:11.198Z,103.429
2023-01-23T11:08:11.263Z,103.571
2023-01-23T11:09:11.277Z,103.5
2023-01-23T11:10:11.319Z,103.643
2023-01-23T11:11:11.341Z,103.571
2023-01-23T11:12:11.376Z,103.786
2023-01-23T11:13:11.422Z,103.429
2023-01-23T11:14:11.478Z,103.786
2023-01-23T11:15:11.485Z,103.571
2023-01-23T11:16:11.610Z,103.5
2023-01-23T11:17:11.558Z,103.571
2023-01-23T11:18:11.578Z,103.5
2023-01-23T11:19:11.608Z,103.714
2023-01-23T11:20:11.653Z,103.357
2023-01-23T11:21:11.685Z,103.643
2023-01-23T11:22:11.720Z,103.786
2023-01-23T11:23:11.755Z,103.429
2023-01-23T11:24:11.790Z,103.643
2023-01-23T11:25:11.822Z,103.5
2023-01-23T11:26:11.860Z,103.786
2023-01-23T11:27:11.892Z,103.571
2023-01-23T11:28:11.940Z,103.571
2023-01-23T11:29:11.972Z,103.786
2023-01-23T11:30:12.029Z,103.5
2023-01-23T11:31:15.024Z,103.571
2023-01-23T11:32:12.168Z,103.643
2023-01-23T11:33:12.106Z,103.571
2023-01-23T11:34:12.139Z,103.5
2023-01-23T11:35:12.178Z,103.714
2023-01-23T11:36:12.214Z,103.571
2023-01-23T11:37:12.229Z,103.571
2023-01-23T11:38:12.269Z,103.571
2023-01-23T11:39:12.300Z,103.357
2023-01-23T11:40:12.324Z,103.571
2023-01-23T11:41:12.357Z,103.643
2023-01-23T11:42:12.414Z,103.571
2023-01-23T11:43:12.428Z,103.714
2023-01-23T11:44:14.758Z,103.643
2023-01-23T11:45:12.495Z,103.357
2023-01-23T11:46:12.653Z,103.643
2023-01-23T11:47:12.578Z,103.571
2023-01-23T11:48:12.619Z,103.357
2023-01-23T11:49:12.631Z,103.786
2023-01-23T11:50:12.674Z,103.786
2023-01-23T11:51:12.718Z,103.5
2023-01-23T11:52:12.749Z,103.571
2023-01-23T11:53:12.850Z,103.714
2023-01-23T11:54:12.842Z,103.643
2023-01-23T11:55:12.839Z,103.643
2023-01-23T11:56:12.878Z,103.571
2023-01-23T11:57:12.912Z,103.643
2023-01-23T11:58:12.946Z,103.5
2023-01-23T11:59:12.987Z,103.786
2023-01-23T12:00:13.019Z,103.571
2023-01-23T12:01:13.081Z,103.571
2023-01-23T12:02:13.131Z,103.571
2023-01-23T12:03:13.125Z,103.429
2023-01-23T12:04:13.243Z,103.643
2023-01-23T12:05:13.196Z,103.5
2023-01-23T12:07:13.274Z,103.429
2023-01-23T12:08:13.313Z,103.429
2023-01-23T12:09:13.343Z,103.643
2023-01-23T12:10:13.369Z,103.714
2023-01-23T12:11:13.397Z,103.714
2023-01-23T12:12:13.437Z,103.571
2023-01-23T12:13:13.494Z,103.571
2023-01-23T12:14:13.511Z,103.429
2023-01-23T12:15:13.561Z,103.571